sensor_id;sensor_type;location;lat;lon;timestamp;P1;durP1;ratioP1;P2;durP2;ratioP2
37445;SDS011;23307;51.136;14.942;2023-03-21T00:01:02;17.15;;;12.70;;
37445;SDS011;23307;51.136;14.942;2023-03-21T00:03:29;17.35;;;13.35;;
37445;SDS011;23307;51.136;14.942;2023-03-21T00:05:55;16.48;;;12.93;;
37445;SDS011;23307;51.136;14.942;2023-03-21T00:08:21;18.45;;;13.27;;
37445;SDS011;23307;51.136;14.942;2023-03-21T00:10:59;16.92;;;13.95;;
37445;SDS011;23307;51.136;14.942;2023-03-21T00:13:27;18.50;;;13.80;;
37445;SDS011;23307;51.136;14.942;2023-03-21T00:15:56;20.50;;;14.88;;
37445;SDS011;23307;51.136;14.942;2023-03-21T00:18:32;21.05;;;14.90;;
37445;SDS011;23307;51.136;14.942;2023-03-21T00:21:01;19.58;;;14.45;;
37445;SDS011;23307;51.136;14.942;2023-03-21T00:23:32;23.52;;;16.10;;
37445;SDS011;23307;51.136;14.942;2023-03-21T00:25:58;21.02;;;15.68;;
37445;SDS011;23307;51.136;14.942;2023-03-21T00:28:24;20.77;;;15.98;;
37445;SDS011;23307;51.136;14.942;2023-03-21T00:30:50;20.88;;;15.40;;
37445;SDS011;23307;51.136;14.942;2023-03-21T00:33:15;22.58;;;15.98;;
37445;SDS011;23307;51.136;14.942;2023-03-21T00:35:44;21.73;;;16.17;;
37445;SDS011;23307;51.136;14.942;2023-03-21T00:38:13;20.90;;;16.00;;
37445;SDS011;23307;51.136;14.942;2023-03-21T00:40:39;23.30;;;15.57;;
37445;SDS011;23307;51.136;14.942;2023-03-21T00:43:04;22.27;;;16.48;;
37445;SDS011;23307;51.136;14.942;2023-03-21T00:45:30;23.48;;;16.80;;
37445;SDS011;23307;51.136;14.942;2023-03-21T00:47:56;23.98;;;17.85;;
37445;SDS011;23307;51.136;14.942;2023-03-21T00:50:22;23.25;;;17.30;;
37445;SDS011;23307;51.136;14.942;2023-03-21T00:52:48;23.52;;;17.50;;
37445;SDS011;23307;51.136;14.942;2023-03-21T00:55:14;22.75;;;17.40;;
37445;SDS011;23307;51.136;14.942;2023-03-21T00:57:41;25.25;;;17.13;;
37445;SDS011;23307;51.136;14.942;2023-03-21T01:00:08;22.35;;;17.48;;
37445;SDS011;23307;51.136;14.942;2023-03-21T01:02:35;22.98;;;15.80;;
37445;SDS011;23307;51.136;14.942;2023-03-21T01:05:02;21.90;;;16.10;;
37445;SDS011;23307;51.136;14.942;2023-03-21T01:07:28;22.35;;;16.13;;
37445;SDS011;23307;51.136;14.942;2023-03-21T01:09:54;23.48;;;17.13;;
37445;SDS011;23307;51.136;14.942;2023-03-21T01:12:19;22.45;;;16.58;;
37445;SDS011;23307;51.136;14.942;2023-03-21T01:14:45;25.08;;;18.48;;
37445;SDS011;23307;51.136;14.942;2023-03-21T01:17:10;24.10;;;16.77;;
37445;SDS011;23307;51.136;14.942;2023-03-21T01:19:35;22.13;;;17.00;;
37445;SDS011;23307;51.136;14.942;2023-03-21T01:22:01;23.98;;;16.70;;
37445;SDS011;23307;51.136;14.942;2023-03-21T01:24:26;25.55;;;18.33;;
37445;SDS011;23307;51.136;14.942;2023-03-21T01:26:52;24.38;;;18.23;;
37445;SDS011;23307;51.136;14.942;2023-03-21T01:29:17;25.38;;;19.13;;
37445;SDS011;23307;51.136;14.942;2023-03-21T01:31:43;24.80;;;19.42;;
37445;SDS011;23307;51.136;14.942;2023-03-21T01:34:08;26.30;;;20.27;;
37445;SDS011;23307;51.136;14.942;2023-03-21T01:36:34;26.67;;;18.95;;
37445;SDS011;23307;51.136;14.942;2023-03-21T01:39:00;29.40;;;20.85;;
37445;SDS011;23307;51.136;14.942;2023-03-21T01:41:27;28.65;;;21.17;;
37445;SDS011;23307;51.136;14.942;2023-03-21T01:43:55;29.05;;;21.58;;
37445;SDS011;23307;51.136;14.942;2023-03-21T01:46:25;28.38;;;22.02;;
37445;SDS011;23307;51.136;14.942;2023-03-21T01:48:54;28.35;;;21.77;;
37445;SDS011;23307;51.136;14.942;2023-03-21T01:51:24;30.60;;;22.52;;
37445;SDS011;23307;51.136;14.942;2023-03-21T01:53:52;27.15;;;21.83;;
37445;SDS011;23307;51.136;14.942;2023-03-21T01:56:22;31.05;;;22.60;;
37445;SDS011;23307;51.136;14.942;2023-03-21T01:58:52;31.40;;;23.55;;
37445;SDS011;23307;51.136;14.942;2023-03-21T02:01:21;28.80;;;21.13;;
37445;SDS011;23307;51.136;14.942;2023-03-21T02:03:47;26.52;;;20.58;;
37445;SDS011;23307;51.136;14.942;2023-03-21T02:06:22;27.55;;;20.20;;
37445;SDS011;23307;51.136;14.942;2023-03-21T02:08:56;26.75;;;20.08;;
37445;SDS011;23307;51.136;14.942;2023-03-21T02:11:24;30.20;;;21.55;;
37445;SDS011;23307;51.136;14.942;2023-03-21T02:13:51;27.88;;;21.42;;
37445;SDS011;23307;51.136;14.942;2023-03-21T02:16:24;28.80;;;20.98;;
37445;SDS011;23307;51.136;14.942;2023-03-21T02:19:07;28.35;;;20.27;;
37445;SDS011;23307;51.136;14.942;2023-03-21T02:27:31;23.73;;;19.50;;
37445;SDS011;23307;51.136;14.942;2023-03-21T02:30:13;24.30;;;19.38;;
37445;SDS011;23307;51.136;14.942;2023-03-21T02:33:10;27.33;;;20.20;;
37445;SDS011;23307;51.136;14.942;2023-03-21T02:38:51;28.08;;;20.45;;
37445;SDS011;23307;51.136;14.942;2023-03-21T02:41:23;24.23;;;19.60;;
37445;SDS011;23307;51.136;14.942;2023-03-21T02:44:04;25.85;;;20.20;;
37445;SDS011;23307;51.136;14.942;2023-03-21T02:46:45;26.60;;;20.77;;
37445;SDS011;23307;51.136;14.942;2023-03-21T02:49:33;25.58;;;19.52;;
37445;SDS011;23307;51.136;14.942;2023-03-21T02:52:14;25.33;;;19.70;;
37445;SDS011;23307;51.136;14.942;2023-03-21T02:54:46;26.83;;;20.02;;
37445;SDS011;23307;51.136;14.942;2023-03-21T02:57:14;22.75;;;18.67;;
37445;SDS011;23307;51.136;14.942;2023-03-21T02:59:42;23.88;;;19.48;;
37445;SDS011;23307;51.136;14.942;2023-03-21T03:02:08;25.92;;;18.98;;
37445;SDS011;23307;51.136;14.942;2023-03-21T03:04:34;26.90;;;18.95;;
37445;SDS011;23307;51.136;14.942;2023-03-21T03:09:38;25.83;;;19.40;;
37445;SDS011;23307;51.136;14.942;2023-03-21T03:12:17;25.38;;;19.42;;
37445;SDS011;23307;51.136;14.942;2023-03-21T03:17:57;27.35;;;20.75;;
37445;SDS011;23307;51.136;14.942;2023-03-21T03:20:44;26.10;;;19.60;;
37445;SDS011;23307;51.136;14.942;2023-03-21T03:23:33;25.13;;;19.77;;
37445;SDS011;23307;51.136;14.942;2023-03-21T03:26:16;24.65;;;19.52;;
37445;SDS011;23307;51.136;14.942;2023-03-21T03:28:52;23.67;;;19.17;;
37445;SDS011;23307;51.136;14.942;2023-03-21T03:31:23;24.27;;;19.95;;
37445;SDS011;23307;51.136;14.942;2023-03-21T03:33:54;25.25;;;19.50;;
37445;SDS011;23307;51.136;14.942;2023-03-21T03:36:23;23.05;;;19.80;;
37445;SDS011;23307;51.136;14.942;2023-03-21T03:38:54;26.38;;;20.40;;
37445;SDS011;23307;51.136;14.942;2023-03-21T03:41:23;25.25;;;20.30;;
37445;SDS011;23307;51.136;14.942;2023-03-21T03:43:52;26.67;;;19.63;;
37445;SDS011;23307;51.136;14.942;2023-03-21T03:46:24;25.02;;;19.63;;
37445;SDS011;23307;51.136;14.942;2023-03-21T03:48:56;25.75;;;20.08;;
37445;SDS011;23307;51.136;14.942;2023-03-21T03:51:34;27.42;;;20.35;;
37445;SDS011;23307;51.136;14.942;2023-03-21T03:54:05;24.80;;;20.13;;
37445;SDS011;23307;51.136;14.942;2023-03-21T03:56:36;30.60;;;21.20;;
37445;SDS011;23307;51.136;14.942;2023-03-21T03:59:03;26.15;;;20.52;;
37445;SDS011;23307;51.136;14.942;2023-03-21T04:01:29;26.05;;;20.90;;
37445;SDS011;23307;51.136;14.942;2023-03-21T04:03:54;26.38;;;20.98;;
37445;SDS011;23307;51.136;14.942;2023-03-21T04:06:20;30.02;;;20.73;;
37445;SDS011;23307;51.136;14.942;2023-03-21T04:08:46;28.60;;;22.05;;
37445;SDS011;23307;51.136;14.942;2023-03-21T04:11:12;27.73;;;21.38;;
37445;SDS011;23307;51.136;14.942;2023-03-21T04:13:40;25.92;;;20.75;;
37445;SDS011;23307;51.136;14.942;2023-03-21T04:16:05;26.15;;;21.35;;
37445;SDS011;23307;51.136;14.942;2023-03-21T04:18:32;25.90;;;20.05;;
37445;SDS011;23307;51.136;14.942;2023-03-21T04:20:58;24.95;;;21.05;;
37445;SDS011;23307;51.136;14.942;2023-03-21T04:23:23;25.83;;;20.77;;
37445;SDS011;23307;51.136;14.942;2023-03-21T04:25:50;26.27;;;20.40;;
37445;SDS011;23307;51.136;14.942;2023-03-21T04:28:15;26.20;;;20.63;;
37445;SDS011;23307;51.136;14.942;2023-03-21T04:30:41;27.05;;;21.08;;
37445;SDS011;23307;51.136;14.942;2023-03-21T04:33:07;25.63;;;20.60;;
37445;SDS011;23307;51.136;14.942;2023-03-21T04:35:32;25.63;;;20.27;;
37445;SDS011;23307;51.136;14.942;2023-03-21T04:38:00;27.55;;;20.85;;
37445;SDS011;23307;51.136;14.942;2023-03-21T04:40:26;26.40;;;20.95;;
37445;SDS011;23307;51.136;14.942;2023-03-21T04:42:51;24.80;;;20.27;;
37445;SDS011;23307;51.136;14.942;2023-03-21T04:45:17;24.58;;;20.35;;
37445;SDS011;23307;51.136;14.942;2023-03-21T04:47:42;27.40;;;21.00;;
37445;SDS011;23307;51.136;14.942;2023-03-21T04:50:09;24.05;;;19.80;;
37445;SDS011;23307;51.136;14.942;2023-03-21T04:52:35;26.98;;;19.83;;
37445;SDS011;23307;51.136;14.942;2023-03-21T04:55:01;25.73;;;20.42;;
37445;SDS011;23307;51.136;14.942;2023-03-21T04:57:27;26.30;;;19.80;;
37445;SDS011;23307;51.136;14.942;2023-03-21T04:59:52;25.55;;;20.48;;
37445;SDS011;23307;51.136;14.942;2023-03-21T05:02:18;25.15;;;20.80;;
37445;SDS011;23307;51.136;14.942;2023-03-21T05:04:43;26.00;;;20.27;;
37445;SDS011;23307;51.136;14.942;2023-03-21T05:07:09;24.95;;;20.02;;
37445;SDS011;23307;51.136;14.942;2023-03-21T05:09:35;27.23;;;20.88;;
37445;SDS011;23307;51.136;14.942;2023-03-21T05:12:00;25.90;;;20.02;;
37445;SDS011;23307;51.136;14.942;2023-03-21T05:14:26;26.88;;;21.35;;
37445;SDS011;23307;51.136;14.942;2023-03-21T05:16:52;27.73;;;21.30;;
37445;SDS011;23307;51.136;14.942;2023-03-21T05:19:20;27.30;;;21.00;;
37445;SDS011;23307;51.136;14.942;2023-03-21T05:22:00;26.55;;;20.48;;
37445;SDS011;23307;51.136;14.942;2023-03-21T05:24:28;27.20;;;20.52;;
37445;SDS011;23307;51.136;14.942;2023-03-21T05:26:55;27.50;;;20.95;;
37445;SDS011;23307;51.136;14.942;2023-03-21T05:29:25;26.02;;;20.98;;
37445;SDS011;23307;51.136;14.942;2023-03-21T05:31:51;26.60;;;20.45;;
37445;SDS011;23307;51.136;14.942;2023-03-21T05:34:17;27.50;;;21.90;;
37445;SDS011;23307;51.136;14.942;2023-03-21T05:36:42;25.63;;;20.42;;
37445;SDS011;23307;51.136;14.942;2023-03-21T05:39:08;27.42;;;21.80;;
37445;SDS011;23307;51.136;14.942;2023-03-21T05:41:33;26.02;;;21.33;;
37445;SDS011;23307;51.136;14.942;2023-03-21T05:43:59;23.55;;;20.02;;
37445;SDS011;23307;51.136;14.942;2023-03-21T05:46:24;25.75;;;21.30;;
37445;SDS011;23307;51.136;14.942;2023-03-21T05:48:50;26.30;;;20.88;;
37445;SDS011;23307;51.136;14.942;2023-03-21T05:51:16;28.00;;;21.08;;
37445;SDS011;23307;51.136;14.942;2023-03-21T05:53:42;28.27;;;21.10;;
37445;SDS011;23307;51.136;14.942;2023-03-21T05:56:08;30.88;;;21.15;;
37445;SDS011;23307;51.136;14.942;2023-03-21T05:58:34;26.23;;;20.63;;
37445;SDS011;23307;51.136;14.942;2023-03-21T06:00:59;24.92;;;20.48;;
37445;SDS011;23307;51.136;14.942;2023-03-21T06:03:25;30.55;;;20.85;;
37445;SDS011;23307;51.136;14.942;2023-03-21T06:05:50;28.60;;;21.92;;
37445;SDS011;23307;51.136;14.942;2023-03-21T06:08:16;26.55;;;21.02;;
37445;SDS011;23307;51.136;14.942;2023-03-21T06:10:41;26.95;;;21.75;;
37445;SDS011;23307;51.136;14.942;2023-03-21T06:13:07;29.92;;;21.33;;
37445;SDS011;23307;51.136;14.942;2023-03-21T06:15:32;26.35;;;21.17;;
37445;SDS011;23307;51.136;14.942;2023-03-21T06:17:58;25.05;;;20.92;;
37445;SDS011;23307;51.136;14.942;2023-03-21T06:20:23;27.90;;;21.45;;
37445;SDS011;23307;51.136;14.942;2023-03-21T06:22:49;26.05;;;21.45;;
37445;SDS011;23307;51.136;14.942;2023-03-21T06:25:15;25.73;;;21.30;;
37445;SDS011;23307;51.136;14.942;2023-03-21T06:27:40;24.83;;;21.52;;
37445;SDS011;23307;51.136;14.942;2023-03-21T06:30:06;29.27;;;22.02;;
37445;SDS011;23307;51.136;14.942;2023-03-21T06:32:32;28.13;;;21.73;;
37445;SDS011;23307;51.136;14.942;2023-03-21T06:34:58;30.67;;;21.95;;
37445;SDS011;23307;51.136;14.942;2023-03-21T06:37:23;29.98;;;22.83;;
37445;SDS011;23307;51.136;14.942;2023-03-21T06:39:50;28.00;;;21.60;;
37445;SDS011;23307;51.136;14.942;2023-03-21T06:42:16;26.80;;;21.75;;
37445;SDS011;23307;51.136;14.942;2023-03-21T06:44:41;28.35;;;22.13;;
37445;SDS011;23307;51.136;14.942;2023-03-21T06:47:06;28.58;;;22.40;;
37445;SDS011;23307;51.136;14.942;2023-03-21T06:49:32;28.13;;;20.50;;
37445;SDS011;23307;51.136;14.942;2023-03-21T06:51:58;28.30;;;22.38;;
37445;SDS011;23307;51.136;14.942;2023-03-21T06:54:23;28.10;;;22.60;;
37445;SDS011;23307;51.136;14.942;2023-03-21T06:56:49;28.10;;;21.65;;
37445;SDS011;23307;51.136;14.942;2023-03-21T06:59:15;27.30;;;21.90;;
37445;SDS011;23307;51.136;14.942;2023-03-21T07:01:40;30.17;;;22.60;;
37445;SDS011;23307;51.136;14.942;2023-03-21T07:04:07;32.95;;;24.30;;
37445;SDS011;23307;51.136;14.942;2023-03-21T07:06:33;29.17;;;22.90;;
37445;SDS011;23307;51.136;14.942;2023-03-21T07:08:58;33.92;;;22.85;;
37445;SDS011;23307;51.136;14.942;2023-03-21T07:11:24;31.08;;;24.30;;
37445;SDS011;23307;51.136;14.942;2023-03-21T07:13:50;31.67;;;24.65;;
37445;SDS011;23307;51.136;14.942;2023-03-21T07:16:16;30.60;;;23.60;;
37445;SDS011;23307;51.136;14.942;2023-03-21T07:18:43;31.23;;;23.73;;
37445;SDS011;23307;51.136;14.942;2023-03-21T07:21:09;28.77;;;23.15;;
37445;SDS011;23307;51.136;14.942;2023-03-21T07:23:35;34.67;;;23.95;;
37445;SDS011;23307;51.136;14.942;2023-03-21T07:26:02;29.77;;;24.25;;
37445;SDS011;23307;51.136;14.942;2023-03-21T07:28:27;31.08;;;23.27;;
37445;SDS011;23307;51.136;14.942;2023-03-21T07:30:56;30.35;;;23.73;;
37445;SDS011;23307;51.136;14.942;2023-03-21T07:33:23;27.33;;;22.27;;
37445;SDS011;23307;51.136;14.942;2023-03-21T07:35:50;30.30;;;23.58;;
37445;SDS011;23307;51.136;14.942;2023-03-21T07:38:16;31.20;;;24.30;;
37445;SDS011;23307;51.136;14.942;2023-03-21T07:40:43;30.80;;;23.90;;
37445;SDS011;23307;51.136;14.942;2023-03-21T07:43:09;28.15;;;23.42;;
37445;SDS011;23307;51.136;14.942;2023-03-21T07:45:35;30.60;;;24.90;;
37445;SDS011;23307;51.136;14.942;2023-03-21T07:48:00;31.13;;;23.05;;
37445;SDS011;23307;51.136;14.942;2023-03-21T07:50:26;30.52;;;23.00;;
37445;SDS011;23307;51.136;14.942;2023-03-21T07:52:51;30.02;;;23.63;;
37445;SDS011;23307;51.136;14.942;2023-03-21T07:55:17;31.52;;;23.20;;
37445;SDS011;23307;51.136;14.942;2023-03-21T07:57:43;28.80;;;24.13;;
37445;SDS011;23307;51.136;14.942;2023-03-21T08:00:09;30.63;;;24.65;;
37445;SDS011;23307;51.136;14.942;2023-03-21T08:02:36;28.35;;;24.00;;
37445;SDS011;23307;51.136;14.942;2023-03-21T08:05:02;32.90;;;24.85;;
37445;SDS011;23307;51.136;14.942;2023-03-21T08:07:28;29.27;;;23.67;;
37445;SDS011;23307;51.136;14.942;2023-03-21T08:09:54;34.88;;;24.05;;
37445;SDS011;23307;51.136;14.942;2023-03-21T08:12:20;35.28;;;25.70;;
37445;SDS011;23307;51.136;14.942;2023-03-21T08:14:45;31.90;;;24.77;;
37445;SDS011;23307;51.136;14.942;2023-03-21T08:17:11;30.77;;;24.80;;
37445;SDS011;23307;51.136;14.942;2023-03-21T08:19:36;32.53;;;24.30;;
37445;SDS011;23307;51.136;14.942;2023-03-21T08:22:02;31.52;;;24.27;;
37445;SDS011;23307;51.136;14.942;2023-03-21T08:24:30;28.50;;;23.67;;
37445;SDS011;23307;51.136;14.942;2023-03-21T08:26:57;29.38;;;23.75;;
37445;SDS011;23307;51.136;14.942;2023-03-21T08:29:24;29.27;;;22.13;;
37445;SDS011;23307;51.136;14.942;2023-03-21T08:31:50;28.13;;;24.17;;
37445;SDS011;23307;51.136;14.942;2023-03-21T08:34:15;28.23;;;23.42;;
37445;SDS011;23307;51.136;14.942;2023-03-21T08:36:41;29.85;;;22.88;;
37445;SDS011;23307;51.136;14.942;2023-03-21T08:39:07;28.67;;;23.38;;
37445;SDS011;23307;51.136;14.942;2023-03-21T08:41:34;27.27;;;23.17;;
37445;SDS011;23307;51.136;14.942;2023-03-21T08:44:01;31.00;;;23.80;;
37445;SDS011;23307;51.136;14.942;2023-03-21T08:46:28;29.67;;;23.23;;
37445;SDS011;23307;51.136;14.942;2023-03-21T08:48:53;27.23;;;22.65;;
37445;SDS011;23307;51.136;14.942;2023-03-21T08:51:20;30.67;;;22.63;;
37445;SDS011;23307;51.136;14.942;2023-03-21T08:53:46;30.50;;;23.30;;
37445;SDS011;23307;51.136;14.942;2023-03-21T08:56:13;28.08;;;23.88;;
37445;SDS011;23307;51.136;14.942;2023-03-21T08:58:38;28.17;;;22.70;;
37445;SDS011;23307;51.136;14.942;2023-03-21T09:01:04;28.33;;;22.13;;
37445;SDS011;23307;51.136;14.942;2023-03-21T09:03:31;28.23;;;20.80;;
37445;SDS011;23307;51.136;14.942;2023-03-21T09:05:56;28.90;;;22.38;;
37445;SDS011;23307;51.136;14.942;2023-03-21T09:08:22;30.20;;;23.92;;
37445;SDS011;23307;51.136;14.942;2023-03-21T09:10:49;27.75;;;21.20;;
37445;SDS011;23307;51.136;14.942;2023-03-21T09:13:17;23.40;;;19.83;;
37445;SDS011;23307;51.136;14.942;2023-03-21T09:15:43;23.15;;;20.08;;
37445;SDS011;23307;51.136;14.942;2023-03-21T09:18:09;28.23;;;21.25;;
37445;SDS011;23307;51.136;14.942;2023-03-21T09:20:40;26.00;;;20.10;;
37445;SDS011;23307;51.136;14.942;2023-03-21T09:23:07;27.08;;;21.58;;
37445;SDS011;23307;51.136;14.942;2023-03-21T09:25:34;24.67;;;19.83;;
37445;SDS011;23307;51.136;14.942;2023-03-21T09:28:00;24.63;;;19.02;;
37445;SDS011;23307;51.136;14.942;2023-03-21T09:30:29;22.88;;;18.75;;
37445;SDS011;23307;51.136;14.942;2023-03-21T09:32:59;26.95;;;19.15;;
37445;SDS011;23307;51.136;14.942;2023-03-21T09:35:26;22.35;;;17.92;;
37445;SDS011;23307;51.136;14.942;2023-03-21T09:37:52;24.25;;;18.52;;
37445;SDS011;23307;51.136;14.942;2023-03-21T09:40:20;20.60;;;17.60;;
37445;SDS011;23307;51.136;14.942;2023-03-21T09:43:07;22.85;;;18.58;;
37445;SDS011;23307;51.136;14.942;2023-03-21T09:48:43;20.75;;;18.20;;
37445;SDS011;23307;51.136;14.942;2023-03-21T09:51:12;22.65;;;16.55;;
37445;SDS011;23307;51.136;14.942;2023-03-21T09:53:40;22.77;;;17.05;;
37445;SDS011;23307;51.136;14.942;2023-03-21T09:56:09;22.08;;;17.77;;
37445;SDS011;23307;51.136;14.942;2023-03-21T09:58:40;20.85;;;16.27;;
37445;SDS011;23307;51.136;14.942;2023-03-21T10:01:15;21.23;;;16.60;;
37445;SDS011;23307;51.136;14.942;2023-03-21T10:03:58;21.52;;;16.70;;
37445;SDS011;23307;51.136;14.942;2023-03-21T10:06:27;19.13;;;15.82;;
37445;SDS011;23307;51.136;14.942;2023-03-21T10:08:56;16.67;;;14.23;;
37445;SDS011;23307;51.136;14.942;2023-03-21T10:11:49;17.88;;;14.45;;
37445;SDS011;23307;51.136;14.942;2023-03-21T10:17:46;21.40;;;14.85;;
37445;SDS011;23307;51.136;14.942;2023-03-21T10:20:13;17.40;;;14.55;;
37445;SDS011;23307;51.136;14.942;2023-03-21T10:22:41;19.00;;;14.15;;
37445;SDS011;23307;51.136;14.942;2023-03-21T10:25:12;19.40;;;13.82;;
37445;SDS011;23307;51.136;14.942;2023-03-21T10:27:40;18.60;;;14.52;;
37445;SDS011;23307;51.136;14.942;2023-03-21T10:30:06;19.42;;;15.50;;
37445;SDS011;23307;51.136;14.942;2023-03-21T10:32:40;20.75;;;15.00;;
37445;SDS011;23307;51.136;14.942;2023-03-21T10:35:06;16.20;;;13.75;;
37445;SDS011;23307;51.136;14.942;2023-03-21T10:37:34;18.42;;;13.95;;
37445;SDS011;23307;51.136;14.942;2023-03-21T10:40:00;19.33;;;14.50;;
37445;SDS011;23307;51.136;14.942;2023-03-21T10:42:28;21.02;;;15.13;;
37445;SDS011;23307;51.136;14.942;2023-03-21T10:44:57;16.60;;;14.07;;
37445;SDS011;23307;51.136;14.942;2023-03-21T10:47:32;19.02;;;14.27;;
37445;SDS011;23307;51.136;14.942;2023-03-21T10:50:00;19.02;;;14.60;;
37445;SDS011;23307;51.136;14.942;2023-03-21T10:52:28;16.15;;;13.65;;
37445;SDS011;23307;51.136;14.942;2023-03-21T10:55:04;17.60;;;14.27;;
37445;SDS011;23307;51.136;14.942;2023-03-21T10:57:43;18.52;;;13.82;;
37445;SDS011;23307;51.136;14.942;2023-03-21T11:00:12;20.95;;;14.00;;
37445;SDS011;23307;51.136;14.942;2023-03-21T11:02:46;16.98;;;13.13;;
37445;SDS011;23307;51.136;14.942;2023-03-21T11:05:32;15.57;;;12.52;;
37445;SDS011;23307;51.136;14.942;2023-03-21T11:08:09;16.48;;;13.10;;
37445;SDS011;23307;51.136;14.942;2023-03-21T11:10:48;17.08;;;12.18;;
37445;SDS011;23307;51.136;14.942;2023-03-21T11:13:24;12.32;;;11.02;;
37445;SDS011;23307;51.136;14.942;2023-03-21T11:15:52;14.65;;;11.55;;
37445;SDS011;23307;51.136;14.942;2023-03-21T11:18:22;13.00;;;10.95;;
37445;SDS011;23307;51.136;14.942;2023-03-21T11:20:54;15.77;;;11.55;;
37445;SDS011;23307;51.136;14.942;2023-03-21T11:23:27;12.65;;;10.88;;
37445;SDS011;23307;51.136;14.942;2023-03-21T11:25:56;14.85;;;11.13;;
37445;SDS011;23307;51.136;14.942;2023-03-21T11:28:25;13.20;;;11.63;;
37445;SDS011;23307;51.136;14.942;2023-03-21T11:30:58;12.85;;;11.07;;
37445;SDS011;23307;51.136;14.942;2023-03-21T11:33:25;13.18;;;10.90;;
37445;SDS011;23307;51.136;14.942;2023-03-21T11:41:53;12.73;;;11.18;;
37445;SDS011;23307;51.136;14.942;2023-03-21T11:44:26;11.45;;;10.27;;
37445;SDS011;23307;51.136;14.942;2023-03-21T11:46:56;12.63;;;9.95;;
37445;SDS011;23307;51.136;14.942;2023-03-21T11:49:22;10.77;;;9.68;;
37445;SDS011;23307;51.136;14.942;2023-03-21T11:54:31;13.80;;;9.98;;
37445;SDS011;23307;51.136;14.942;2023-03-21T12:00:03;10.48;;;9.25;;
37445;SDS011;23307;51.136;14.942;2023-03-21T12:05:24;8.95;;;8.05;;
37445;SDS011;23307;51.136;14.942;2023-03-21T12:10:43;9.00;;;8.10;;
37445;SDS011;23307;51.136;14.942;2023-03-21T12:16:52;10.57;;;8.38;;
37445;SDS011;23307;51.136;14.942;2023-03-21T12:19:45;9.25;;;8.35;;
37445;SDS011;23307;51.136;14.942;2023-03-21T12:24:54;12.27;;;8.73;;
37445;SDS011;23307;51.136;14.942;2023-03-21T12:32:44;9.95;;;9.00;;
37445;SDS011;23307;51.136;14.942;2023-03-21T12:35:19;9.43;;;8.50;;
37445;SDS011;23307;51.136;14.942;2023-03-21T12:46:12;10.05;;;8.73;;
37445;SDS011;23307;51.136;14.942;2023-03-21T12:49:00;9.75;;;8.85;;
37445;SDS011;23307;51.136;14.942;2023-03-21T12:51:32;10.85;;;9.07;;
37445;SDS011;23307;51.136;14.942;2023-03-21T12:54:09;9.90;;;8.90;;
37445;SDS011;23307;51.136;14.942;2023-03-21T12:56:44;10.98;;;9.27;;
37445;SDS011;23307;51.136;14.942;2023-03-21T12:59:37;11.30;;;10.13;;
37445;SDS011;23307;51.136;14.942;2023-03-21T13:02:13;10.48;;;9.45;;
37445;SDS011;23307;51.136;14.942;2023-03-21T13:04:53;10.27;;;9.27;;
37445;SDS011;23307;51.136;14.942;2023-03-21T13:07:24;10.38;;;9.38;;
37445;SDS011;23307;51.136;14.942;2023-03-21T13:09:52;10.65;;;9.65;;
37445;SDS011;23307;51.136;14.942;2023-03-21T13:12:32;10.27;;;9.32;;
37445;SDS011;23307;51.136;14.942;2023-03-21T13:17:49;10.88;;;9.88;;
37445;SDS011;23307;51.136;14.942;2023-03-21T13:23:02;9.85;;;8.88;;
37445;SDS011;23307;51.136;14.942;2023-03-21T13:25:29;10.30;;;9.10;;
37445;SDS011;23307;51.136;14.942;2023-03-21T13:28:01;10.02;;;9.02;;
37445;SDS011;23307;51.136;14.942;2023-03-21T13:30:28;10.00;;;9.02;;
37445;SDS011;23307;51.136;14.942;2023-03-21T13:35:39;10.57;;;9.63;;
37445;SDS011;23307;51.136;14.942;2023-03-21T13:38:17;9.50;;;8.70;;
37445;SDS011;23307;51.136;14.942;2023-03-21T13:40:56;8.98;;;8.18;;
37445;SDS011;23307;51.136;14.942;2023-03-21T13:51:37;8.88;;;7.95;;
37445;SDS011;23307;51.136;14.942;2023-03-21T13:54:16;9.40;;;8.57;;
37445;SDS011;23307;51.136;14.942;2023-03-21T13:59:34;9.40;;;8.50;;
37445;SDS011;23307;51.136;14.942;2023-03-21T14:02:14;9.50;;;8.60;;
37445;SDS011;23307;51.136;14.942;2023-03-21T14:04:45;8.93;;;8.13;;
37445;SDS011;23307;51.136;14.942;2023-03-21T14:07:20;8.57;;;7.80;;
37445;SDS011;23307;51.136;14.942;2023-03-21T14:09:55;8.93;;;8.13;;
37445;SDS011;23307;51.136;14.942;2023-03-21T14:12:35;9.05;;;8.15;;
37445;SDS011;23307;51.136;14.942;2023-03-21T14:15:12;8.75;;;7.95;;
37445;SDS011;23307;51.136;14.942;2023-03-21T14:17:54;8.85;;;8.05;;
37445;SDS011;23307;51.136;14.942;2023-03-21T14:20:28;7.88;;;7.07;;
37445;SDS011;23307;51.136;14.942;2023-03-21T14:22:56;9.35;;;8.13;;
37445;SDS011;23307;51.136;14.942;2023-03-21T14:25:23;7.75;;;7.05;;
37445;SDS011;23307;51.136;14.942;2023-03-21T14:27:52;8.32;;;7.63;;
37445;SDS011;23307;51.136;14.942;2023-03-21T14:32:59;8.23;;;7.47;;
37445;SDS011;23307;51.136;14.942;2023-03-21T14:35:29;7.72;;;7.03;;
37445;SDS011;23307;51.136;14.942;2023-03-21T14:37:58;8.07;;;7.35;;
37445;SDS011;23307;51.136;14.942;2023-03-21T14:40:27;7.93;;;7.13;;
37445;SDS011;23307;51.136;14.942;2023-03-21T14:42:53;8.38;;;7.57;;
37445;SDS011;23307;51.136;14.942;2023-03-21T14:45:20;7.85;;;7.15;;
37445;SDS011;23307;51.136;14.942;2023-03-21T14:47:55;7.88;;;7.18;;
37445;SDS011;23307;51.136;14.942;2023-03-21T14:53:18;10.05;;;7.30;;
37445;SDS011;23307;51.136;14.942;2023-03-21T14:55:49;7.65;;;6.80;;
37445;SDS011;23307;51.136;14.942;2023-03-21T14:58:19;7.38;;;6.70;;
37445;SDS011;23307;51.136;14.942;2023-03-21T15:00:48;7.03;;;6.35;;
37445;SDS011;23307;51.136;14.942;2023-03-21T15:03:15;8.10;;;7.28;;
37445;SDS011;23307;51.136;14.942;2023-03-21T15:05:43;7.30;;;6.60;;
37445;SDS011;23307;51.136;14.942;2023-03-21T15:10:35;7.95;;;6.38;;
37445;SDS011;23307;51.136;14.942;2023-03-21T15:13:11;7.50;;;6.80;;
37445;SDS011;23307;51.136;14.942;2023-03-21T15:15:46;7.82;;;6.75;;
37445;SDS011;23307;51.136;14.942;2023-03-21T15:18:14;7.75;;;6.50;;
37445;SDS011;23307;51.136;14.942;2023-03-21T15:20:45;8.82;;;7.20;;
37445;SDS011;23307;51.136;14.942;2023-03-21T15:23:14;7.03;;;6.32;;
37445;SDS011;23307;51.136;14.942;2023-03-21T15:26:05;7.22;;;6.43;;
37445;SDS011;23307;51.136;14.942;2023-03-21T15:28:31;7.00;;;6.40;;
37445;SDS011;23307;51.136;14.942;2023-03-21T15:30:58;7.22;;;6.55;;
37445;SDS011;23307;51.136;14.942;2023-03-21T15:33:24;8.15;;;6.57;;
37445;SDS011;23307;51.136;14.942;2023-03-21T15:35:51;6.80;;;6.20;;
37445;SDS011;23307;51.136;14.942;2023-03-21T15:38:22;6.75;;;6.10;;
37445;SDS011;23307;51.136;14.942;2023-03-21T15:41:11;7.53;;;6.78;;
37445;SDS011;23307;51.136;14.942;2023-03-21T15:43:43;6.97;;;6.28;;
37445;SDS011;23307;51.136;14.942;2023-03-21T15:46:14;7.20;;;6.50;;
37445;SDS011;23307;51.136;14.942;2023-03-21T15:48:41;7.18;;;6.47;;
37445;SDS011;23307;51.136;14.942;2023-03-21T15:51:13;7.05;;;6.22;;